Banff, Canada
Current Conditions -  °F | °C
As of 5:00 PM on Sunday 21 Dec 2014 (Local Time) from CYBW Reporting Station
Clear Clear  
Wind Chill: 30°   Ceiling: Unl
Heat Index: 30°   Visibility: 9mi
Dew Point: 23°   Wind: 2mph
Humidity: 75%   Direction: 300°WNW
Pressure: 29.52"   Gusts: NA
Location:  51.18°N, 115.57°W
Report Text: CYBW 220000Z AUTO 30002KT 9SM CLR M01/M05 A2952 RMK SLP042
Loading
Personal Weather Stations






























Interactive Weather Map New forecast layout! Learn more

10-Day Weather Forecast

Advertisements
Track Severe Weather on mobile